Time,TemperatureF,DewpointF,PressureIn,WindDirection,WindDirectionDegrees,WindSpeedMPH,WindSpeedGustMPH,Humidity,HourlyPrecipIn,Conditions,Clouds,dailyrainin,SoftwareType,DateUTC
2014-04-18 00:02:00,63.5,32.4,30.11,SSE,158,4.0,12.0,31,0.00,,,0.00,meteohub,2014-04-18 06:02:00,
2014-04-18 00:12:00,63.3,32.2,30.11,SW,225,2.0,7.0,31,0.00,,,0.00,meteohub,2014-04-18 06:12:00,
2014-04-18 00:22:00,63.9,30.2,30.10,SW,225,8.0,8.0,28,0.00,,,0.00,meteohub,2014-04-18 06:22:00,
2014-04-18 00:32:00,65.5,29.7,30.10,SE,135,7.0,24.0,26,0.00,,,0.00,meteohub,2014-04-18 06:32:00,
2014-04-18 00:42:00,66.2,29.3,30.09,SSE,158,4.0,7.0,25,0.00,,,0.00,meteohub,2014-04-18 06:42:00,
2014-04-18 00:52:00,66.4,29.5,30.09,SSE,158,3.0,11.0,25,0.00,,,0.00,meteohub,2014-04-18 06:52:00,
2014-04-18 01:02:00,67.5,29.5,30.09,SE,135,9.0,15.0,24,0.00,,,0.00,meteohub,2014-04-18 07:02:00,
2014-04-18 01:12:00,67.3,29.3,30.09,SSE,158,8.0,15.0,24,0.00,,,0.00,meteohub,2014-04-18 07:12:00,
2014-04-18 01:22:00,67.8,29.7,30.10,SW,225,4.0,21.0,24,0.00,,,0.00,meteohub,2014-04-18 07:22:00,
2014-04-18 01:32:00,68.2,28.9,30.10,SE,135,4.0,21.0,23,0.00,,,0.00,meteohub,2014-04-18 07:32:00,
2014-04-18 01:42:00,68.2,28.9,30.10,SE,135,9.0,16.0,23,0.00,,,0.00,meteohub,2014-04-18 07:42:00,
2014-04-18 01:52:00,67.6,29.5,30.10,East,90,7.0,16.0,24,0.00,,,0.00,meteohub,2014-04-18 07:52:00,
2014-04-18 02:02:00,67.3,29.3,30.11,South,180,8.0,14.0,24,0.00,,,0.00,meteohub,2014-04-18 08:02:00,
2014-04-18 02:12:00,67.5,28.4,30.11,SSE,158,10.0,14.0,23,0.00,,,0.00,meteohub,2014-04-18 08:12:00,
2014-04-18 02:22:00,67.1,29.1,30.11,SSE,158,8.0,11.0,24,0.00,,,0.00,meteohub,2014-04-18 08:22:00,
2014-04-18 02:32:00,66.7,28.8,30.11,SSE,158,9.0,13.0,24,0.00,,,0.00,meteohub,2014-04-18 08:32:00,
2014-04-18 02:42:00,66.7,28.8,30.10,SE,135,9.0,14.0,24,0.00,,,0.00,meteohub,2014-04-18 08:42:00,
2014-04-18 02:52:00,66.6,28.6,30.10,WSW,248,6.0,11.0,24,0.00,,,0.00,meteohub,2014-04-18 08:52:00,
2014-04-18 03:02:00,64.9,29.3,30.10,SSE,158,2.0,8.0,26,0.00,,,0.00,meteohub,2014-04-18 09:02:00,
2014-04-18 03:12:00,65.1,28.4,30.10,East,90,10.0,10.0,25,0.00,,,0.00,meteohub,2014-04-18 09:12:00,
2014-04-18 03:22:00,65.3,31.3,30.10,SW,225,9.0,10.0,28,0.00,,,0.00,meteohub,2014-04-18 09:22:00,
2014-04-18 03:32:00,63.3,27.9,30.10,South,180,10.0,10.0,26,0.00,,,0.00,meteohub,2014-04-18 09:32:00,
2014-04-18 03:42:00,65.7,27.9,30.09,WSW,248,13.0,13.0,24,0.00,,,0.00,meteohub,2014-04-18 09:42:00,
2014-04-18 03:52:00,67.1,28.0,30.09,SE,135,13.0,19.0,23,0.00,,,0.00,meteohub,2014-04-18 09:52:00,
2014-04-18 04:02:00,67.1,27.0,30.10,SE,135,13.0,19.0,22,0.00,,,0.00,meteohub,2014-04-18 10:02:00,
2014-04-18 04:12:00,67.5,27.3,30.10,SE,135,7.0,17.0,22,0.00,,,0.00,meteohub,2014-04-18 10:12:00,
2014-04-18 04:22:00,67.5,27.3,30.10,SE,135,11.0,17.0,22,0.00,,,0.00,meteohub,2014-04-18 10:22:00,
2014-04-18 04:32:00,67.3,27.1,30.10,SE,135,9.0,30.0,22,0.00,,,0.00,meteohub,2014-04-18 10:32:00,
2014-04-18 04:42:00,67.1,27.0,30.10,SSE,158,16.0,30.0,22,0.00,,,0.00,meteohub,2014-04-18 10:42:00,
2014-04-18 04:52:00,67.1,27.0,30.10,SE,135,23.0,23.0,22,0.00,,,0.00,meteohub,2014-04-18 10:52:00,
2014-04-18 05:02:00,67.1,27.0,30.10,ESE,113,8.0,23.0,22,0.00,,,0.00,meteohub,2014-04-18 11:02:00,
2014-04-18 05:12:00,67.1,27.0,30.10,South,180,5.0,15.0,22,0.00,,,0.00,meteohub,2014-04-18 11:12:00,
2014-04-18 05:22:00,66.9,25.7,30.10,SSE,158,12.0,15.0,21,0.00,,,0.00,meteohub,2014-04-18 11:22:00,
2014-04-18 05:32:00,66.7,26.6,30.10,SSE,158,2.0,13.0,22,0.00,,,0.00,meteohub,2014-04-18 11:32:00,
2014-04-18 05:42:00,66.2,26.2,30.10,South,180,6.0,9.0,22,0.00,,,0.00,meteohub,2014-04-18 11:42:00,
2014-04-18 05:52:00,65.5,26.8,30.10,West,270,4.0,8.0,23,0.00,,,0.00,meteohub,2014-04-18 11:52:00,
2014-04-18 06:02:00,64.9,27.3,30.10,SE,135,6.0,12.0,24,0.00,,,0.00,meteohub,2014-04-18 12:02:00,
2014-04-18 06:12:00,65.3,25.5,30.10,SSE,158,7.0,12.0,22,0.00,,,0.00,meteohub,2014-04-18 12:12:00,
2014-04-18 06:22:00,65.5,25.7,30.09,SE,135,10.0,12.0,22,0.00,,,0.00,meteohub,2014-04-18 12:22:00,
2014-04-18 06:32:00,65.7,25.7,30.09,SSE,158,12.0,12.0,22,0.00,,,0.00,meteohub,2014-04-18 12:32:00,
2014-04-18 06:42:00,65.1,25.3,30.09,SSE,158,10.0,14.0,22,0.00,,,0.00,meteohub,2014-04-18 12:42:00,
2014-04-18 06:52:00,64.9,25.2,30.09,South,180,3.0,10.0,22,0.00,,,0.00,meteohub,2014-04-18 12:52:00,
2014-04-18 07:02:00,64.8,25.0,30.10,South,180,12.0,12.0,22,0.00,,,0.00,meteohub,2014-04-18 13:02:00,
2014-04-18 07:12:00,64.8,26.1,30.10,South,180,4.0,12.0,23,0.00,,,0.00,meteohub,2014-04-18 13:12:00,
2014-04-18 07:22:00,64.6,24.8,30.10,SE,135,13.0,13.0,22,0.00,,,0.00,meteohub,2014-04-18 13:22:00,
2014-04-18 07:32:00,65.1,25.3,30.10,South,180,8.0,18.0,22,0.00,,,0.00,meteohub,2014-04-18 13:32:00,
2014-04-18 07:42:00,65.1,25.3,30.11,SSE,158,10.0,18.0,22,0.00,,,0.00,meteohub,2014-04-18 13:42:00,
2014-04-18 07:52:00,66.4,24.1,30.11,South,180,4.0,10.0,20,0.00,,,0.00,meteohub,2014-04-18 13:52:00,
2014-04-18 08:02:00,66.7,24.4,30.11,SE,135,13.0,13.0,20,0.00,,,0.00,meteohub,2014-04-18 14:02:00,
2014-04-18 08:12:00,66.4,22.8,30.11,SSW,203,14.0,18.0,19,0.00,,,0.00,meteohub,2014-04-18 14:12:00,
2014-04-18 08:22:00,66.0,23.7,30.11,ENE,68,3.0,14.0,20,0.00,,,0.00,meteohub,2014-04-18 14:22:00,
2014-04-18 08:32:00,66.4,24.1,30.11,SW,225,10.0,10.0,20,0.00,,,0.00,meteohub,2014-04-18 14:32:00,
2014-04-18 08:42:00,66.2,26.2,30.12,SW,225,2.0,10.0,22,0.00,,,0.00,meteohub,2014-04-18 14:42:00,
2014-04-18 08:52:00,66.2,26.2,30.12,South,180,6.0,6.0,22,0.00,,,0.00,meteohub,2014-04-18 14:52:00,
2014-04-18 09:02:00,66.2,26.2,30.12,SW,225,4.0,6.0,22,0.00,,,0.00,meteohub,2014-04-18 15:02:00,
2014-04-18 09:12:00,66.2,26.2,30.12,South,180,9.0,9.0,22,0.00,,,0.00,meteohub,2014-04-18 15:12:00,
2014-04-18 09:22:00,66.4,27.5,30.13,SE,135,5.0,9.0,23,0.00,,,0.00,meteohub,2014-04-18 15:22:00,
2014-04-18 09:32:00,66.0,26.1,30.13,SSE,158,8.0,8.0,22,0.00,,,0.00,meteohub,2014-04-18 15:32:00,
2014-04-18 09:42:00,66.0,26.1,30.14,SSW,203,7.0,19.0,22,0.00,,,0.00,meteohub,2014-04-18 15:42:00,
2014-04-18 09:52:00,66.4,27.5,30.14,SSW,203,4.0,19.0,23,0.00,,,0.00,meteohub,2014-04-18 15:52:00,
2014-04-18 10:02:00,66.4,27.5,30.14,SSE,158,4.0,19.0,23,0.00,,,0.00,meteohub,2014-04-18 16:02:00,
2014-04-18 10:12:00,66.2,27.3,30.14,SW,225,6.0,9.0,23,0.00,,,0.00,meteohub,2014-04-18 16:12:00,
2014-04-18 10:22:00,66.0,27.1,30.14,SE,135,11.0,11.0,23,0.00,,,0.00,meteohub,2014-04-18 16:22:00,
2014-04-18 10:32:00,66.4,26.4,30.14,SSE,158,15.0,15.0,22,0.00,,,0.00,meteohub,2014-04-18 16:32:00,
2014-04-18 10:42:00,66.4,26.4,30.14,SSE,158,8.0,15.0,22,0.00,,,0.00,meteohub,2014-04-18 16:42:00,
2014-04-18 10:52:00,66.4,26.4,30.14,SE,135,7.0,14.0,22,0.00,,,0.00,meteohub,2014-04-18 16:52:00,
2014-04-18 11:02:00,66.6,26.6,30.14,SE,135,7.0,13.0,22,0.00,,,0.00,meteohub,2014-04-18 17:02:00,
2014-04-18 11:12:00,66.6,26.6,30.14,SE,135,4.0,13.0,22,0.00,,,0.00,meteohub,2014-04-18 17:12:00,
2014-04-18 11:22:00,67.1,27.0,30.15,SSE,158,14.0,14.0,22,0.00,,,0.00,meteohub,2014-04-18 17:22:00,
2014-04-18 11:32:00,67.5,27.3,30.15,SSE,158,3.0,14.0,22,0.00,,,0.00,meteohub,2014-04-18 17:32:00,
2014-04-18 11:42:00,68.2,35.6,30.17,WNW,293,6.0,19.0,30,0.00,,,0.00,meteohub,2014-04-18 17:42:00,
2014-04-18 11:52:00,66.2,36.3,30.17,West,270,3.0,9.0,33,0.00,,,0.00,meteohub,2014-04-18 17:52:00,
2014-04-18 12:02:00,65.1,39.6,30.17,NNW,338,9.0,9.0,39,0.00,,,0.00,meteohub,2014-04-18 18:02:00,
2014-04-18 12:12:00,63.3,40.5,30.17,NW,315,7.0,9.0,43,0.00,,,0.00,meteohub,2014-04-18 18:12:00,
2014-04-18 12:22:00,62.8,41.7,30.18,NNE,23,9.0,9.0,46,0.00,,,0.00,meteohub,2014-04-18 18:22:00,
2014-04-18 12:32:00,62.8,41.2,30.18,NW,315,6.0,10.0,45,0.00,,,0.00,meteohub,2014-04-18 18:32:00,
2014-04-18 12:42:00,62.8,42.3,30.18,NNE,23,15.0,15.0,47,0.00,,,0.00,meteohub,2014-04-18 18:42:00,
2014-04-18 12:52:00,62.8,42.8,30.18,NNW,338,7.0,15.0,48,0.00,,,0.00,meteohub,2014-04-18 18:52:00,
2014-04-18 13:02:00,62.2,41.7,30.18,NW,315,9.0,11.0,47,0.00,,,0.00,meteohub,2014-04-18 19:02:00,
2014-04-18 13:12:00,62.4,40.8,30.18,West,270,9.0,15.0,45,0.00,,,0.00,meteohub,2014-04-18 19:12:00,
2014-04-18 13:22:00,62.8,41.7,30.19,North,0,10.0,10.0,46,0.00,,,0.00,meteohub,2014-04-18 19:22:00,
2014-04-18 13:32:00,62.8,42.3,30.19,NW,315,6.0,10.0,47,0.00,,,0.00,meteohub,2014-04-18 19:32:00,
2014-04-18 13:42:00,62.8,42.8,30.20,NW,315,4.0,8.0,48,0.00,,,0.00,meteohub,2014-04-18 19:42:00,
2014-04-18 13:52:00,62.4,43.0,30.20,WNW,293,4.0,7.0,49,0.00,,,0.00,meteohub,2014-04-18 19:52:00,
2014-04-18 14:02:00,62.1,42.6,30.20,North,0,6.0,9.0,49,0.00,,,0.00,meteohub,2014-04-18 20:02:00,
2014-04-18 14:12:00,61.5,42.3,30.20,NW,315,6.0,8.0,49,0.00,,,0.00,meteohub,2014-04-18 20:12:00,
2014-04-18 14:22:00,61.3,42.1,30.20,NW,315,7.0,10.0,49,0.00,,,0.00,meteohub,2014-04-18 20:22:00,
2014-04-18 14:32:00,61.2,43.0,30.20,NNE,23,8.0,10.0,51,0.00,,,0.00,meteohub,2014-04-18 20:32:00,
2014-04-18 14:42:00,61.0,41.7,30.21,West,270,5.0,10.0,49,0.00,,,0.00,meteohub,2014-04-18 20:42:00,
2014-04-18 14:52:00,61.0,41.7,30.21,NNW,338,7.0,9.0,49,0.00,,,0.00,meteohub,2014-04-18 20:52:00,
2014-04-18 15:02:00,61.0,41.7,30.20,NNW,338,5.0,9.0,49,0.00,,,0.00,meteohub,2014-04-18 21:02:00,
2014-04-18 15:12:00,61.2,42.4,30.20,North,0,6.0,9.0,50,0.00,,,0.00,meteohub,2014-04-18 21:12:00,
2014-04-18 15:22:00,61.3,42.6,30.20,NW,315,6.0,8.0,50,0.00,,,0.00,meteohub,2014-04-18 21:22:00,
2014-04-18 15:32:00,61.3,41.5,30.20,NNE,23,5.0,11.0,48,0.00,,,0.00,meteohub,2014-04-18 21:32:00,
2014-04-18 15:42:00,61.5,42.3,30.20,WNW,293,6.0,7.0,49,0.00,,,0.00,meteohub,2014-04-18 21:42:00,
2014-04-18 15:52:00,62.4,43.0,30.20,NNW,338,6.0,7.0,49,0.00,,,0.00,meteohub,2014-04-18 21:52:00,
2014-04-18 16:02:00,63.1,42.6,30.20,NNW,338,7.0,7.0,47,0.00,,,0.00,meteohub,2014-04-18 22:02:00,
2014-04-18 16:12:00,63.1,42.1,30.20,NW,315,8.0,8.0,46,0.00,,,0.00,meteohub,2014-04-18 22:12:00,
2014-04-18 16:22:00,63.7,42.4,30.18,NNE,23,7.0,9.0,46,0.00,,,0.00,meteohub,2014-04-18 22:22:00,
2014-04-18 16:32:00,63.7,42.4,30.18,NW,315,3.0,9.0,46,0.00,,,0.00,meteohub,2014-04-18 22:32:00,
2014-04-18 16:42:00,63.9,42.1,30.18,NW,315,3.0,8.0,45,0.00,,,0.00,meteohub,2014-04-18 22:42:00,
2014-04-18 16:52:00,64.2,42.4,30.18,North,0,10.0,10.0,45,0.00,,,0.00,meteohub,2014-04-18 22:52:00,
2014-04-18 17:02:00,64.6,42.8,30.17,NNW,338,9.0,10.0,45,0.00,,,0.00,meteohub,2014-04-18 23:02:00,
2014-04-18 17:12:00,64.8,42.3,30.17,NNW,338,8.0,9.0,44,0.00,,,0.00,meteohub,2014-04-18 23:12:00,
2014-04-18 17:22:00,63.9,41.0,30.17,NNW,338,4.0,8.0,43,0.00,,,0.00,meteohub,2014-04-18 23:22:00,
2014-04-18 17:32:00,63.3,41.0,30.17,North,0,10.0,11.0,44,0.00,,,0.00,meteohub,2014-04-18 23:32:00,
2014-04-18 17:42:00,62.8,41.2,30.17,NW,315,9.0,12.0,45,0.00,,,0.00,meteohub,2014-04-18 23:42:00,
2014-04-18 17:52:00,63.3,41.5,30.17,NNE,23,3.0,9.0,45,0.00,,,0.00,meteohub,2014-04-18 23:52:00,
2014-04-18 18:02:00,63.5,41.7,30.17,NNW,338,7.0,9.0,45,0.00,,,0.00,meteohub,2014-04-19 00:02:00,
2014-04-18 18:12:00,63.9,42.1,30.17,WNW,293,8.0,9.0,45,0.00,,,0.00,meteohub,2014-04-19 00:12:00,
2014-04-18 18:22:00,63.7,41.9,30.17,NNE,23,10.0,10.0,45,0.00,,,0.00,meteohub,2014-04-19 00:22:00,
2014-04-18 18:32:00,63.7,41.4,30.17,NNW,338,6.0,10.0,44,0.00,,,0.00,meteohub,2014-04-19 00:32:00,
2014-04-18 18:42:00,63.1,41.5,30.17,NNE,23,6.0,7.0,45,0.00,,,0.00,meteohub,2014-04-19 00:42:00,
2014-04-18 18:52:00,63.0,41.4,30.17,NNE,23,4.0,7.0,45,0.00,,,0.00,meteohub,2014-04-19 00:52:00,
2014-04-18 19:02:00,62.8,41.7,30.16,NW,315,2.0,7.0,46,0.00,,,0.00,meteohub,2014-04-19 01:02:00,
2014-04-18 19:12:00,62.8,42.8,30.16,SW,225,6.0,6.0,48,0.00,,,0.00,meteohub,2014-04-19 01:12:00,
2014-04-18 19:22:00,61.7,41.9,30.17,NW,315,8.0,8.0,48,0.00,,,0.00,meteohub,2014-04-19 01:22:00,
2014-04-18 19:32:00,60.8,41.5,30.17,North,0,4.0,8.0,49,0.00,,,0.00,meteohub,2014-04-19 01:32:00,
2014-04-18 19:42:00,60.6,41.9,30.17,NNW,338,2.0,5.0,50,0.00,,,0.00,meteohub,2014-04-19 01:42:00,
2014-04-18 19:52:00,59.7,42.1,30.17,NW,315,2.0,4.0,52,0.00,,,0.00,meteohub,2014-04-19 01:52:00,
2014-04-18 20:02:00,59.2,42.1,30.17,NNW,338,5.0,5.0,53,0.00,,,0.00,meteohub,2014-04-19 02:02:00,
2014-04-18 20:12:00,58.8,41.7,30.17,WNW,293,3.0,5.0,53,0.00,,,0.00,meteohub,2014-04-19 02:12:00,
2014-04-18 20:22:00,58.5,41.4,30.18,WNW,293,2.0,4.0,53,0.00,,,0.00,meteohub,2014-04-19 02:22:00,
2014-04-18 20:32:00,58.1,41.0,30.18,West,270,0.0,3.0,53,0.00,,,0.00,meteohub,2014-04-19 02:32:00,
2014-04-18 20:42:00,57.9,41.9,30.19,NW,315,3.0,3.0,55,0.00,,,0.00,meteohub,2014-04-19 02:42:00,
2014-04-18 20:52:00,57.6,41.9,30.19,NNE,23,3.0,3.0,56,0.00,,,0.00,meteohub,2014-04-19 02:52:00,